createdAt,value
2017-05-11T00:01:15.704Z,8.70
2017-05-11T00:03:43.972Z,8.50
2017-05-11T00:06:12.204Z,8.50
2017-05-11T00:08:40.439Z,8.70
2017-05-11T00:11:08.705Z,8.70
2017-05-11T00:13:36.937Z,8.40
2017-05-11T00:16:05.207Z,8.30
2017-05-11T00:18:33.444Z,8.20
2017-05-11T00:21:01.676Z,8.20
2017-05-11T00:23:29.927Z,8.30
2017-05-11T00:25:58.168Z,8.30
2017-05-11T00:28:26.433Z,8.40
2017-05-11T00:30:54.668Z,8.50
2017-05-11T00:33:22.961Z,8.60
2017-05-11T00:35:51.213Z,8.70
2017-05-11T00:38:19.440Z,8.70
2017-05-11T00:40:47.709Z,8.70
2017-05-11T00:43:16.045Z,8.80
2017-05-11T00:45:44.288Z,8.80
2017-05-11T00:48:13.280Z,8.50
2017-05-11T00:50:42.320Z,8.60
2017-05-11T00:53:10.567Z,8.60
2017-05-11T00:55:38.880Z,8.50
2017-05-11T00:58:07.209Z,8.30
2017-05-11T01:00:35.489Z,8.20
2017-05-11T01:03:03.724Z,8.20
2017-05-11T01:05:31.997Z,8.40
2017-05-11T01:08:00.230Z,8.40
2017-05-11T01:10:28.456Z,8.50
2017-05-11T01:12:56.717Z,8.60
2017-05-11T01:15:24.947Z,8.60
2017-05-11T01:17:53.183Z,8.50
2017-05-11T01:20:21.423Z,8.40
2017-05-11T01:22:49.666Z,8.40
2017-05-11T01:25:17.928Z,8.50
2017-05-11T01:27:45.424Z,8.40
2017-05-11T01:30:13.655Z,8.50
2017-05-11T01:32:41.918Z,8.60
2017-05-11T01:35:10.889Z,8.50
2017-05-11T01:37:39.196Z,8.50
2017-05-11T01:40:07.424Z,8.60
2017-05-11T01:42:35.660Z,8.60
2017-05-11T01:45:03.925Z,8.70
2017-05-11T01:47:32.169Z,8.80
2017-05-11T01:50:00.412Z,8.80
2017-05-11T01:52:28.792Z,8.80
2017-05-11T01:54:57.140Z,8.80
2017-05-11T01:57:25.448Z,8.90
2017-05-11T01:59:53.791Z,8.80
2017-05-11T02:02:22.072Z,8.80
2017-05-11T02:04:50.302Z,8.80
2017-05-11T02:07:18.532Z,8.80
2017-05-11T02:09:46.792Z,8.60
2017-05-11T02:12:15.103Z,8.60
2017-05-11T02:14:43.358Z,8.60
2017-05-11T02:17:11.614Z,8.60
2017-05-11T02:19:39.857Z,8.60
2017-05-11T02:22:08.100Z,8.60
2017-05-11T02:24:36.333Z,8.60
2017-05-11T02:27:04.596Z,8.60
2017-05-11T02:29:33.573Z,8.50
2017-05-11T02:32:01.820Z,8.60
2017-05-11T02:34:30.148Z,8.60
2017-05-11T02:36:59.121Z,8.50
2017-05-11T02:39:27.367Z,8.50
2017-05-11T02:41:55.606Z,8.50
2017-05-11T02:44:23.910Z,8.50
2017-05-11T02:46:52.175Z,8.50
2017-05-11T02:49:20.427Z,8.50
2017-05-11T02:51:48.686Z,8.50
2017-05-11T02:54:17.706Z,8.40
2017-05-11T02:56:45.941Z,8.50
2017-05-11T02:59:14.937Z,8.40
2017-05-11T03:01:43.909Z,8.40
2017-05-11T03:04:12.232Z,8.30
2017-05-11T03:06:40.460Z,8.30
2017-05-11T03:09:08.684Z,8.30
2017-05-11T03:11:36.957Z,8.20
2017-05-11T03:14:05.191Z,8.20
2017-05-11T03:16:33.532Z,8.20
2017-05-11T03:19:01.769Z,8.10
2017-05-11T03:21:30.009Z,8.10
2017-05-11T03:23:58.333Z,8.10
2017-05-11T03:26:26.559Z,8.10
2017-05-11T03:28:54.820Z,8.10
2017-05-11T03:31:23.057Z,8.10
2017-05-11T03:33:51.280Z,7.90
2017-05-11T03:36:19.588Z,7.80
2017-05-11T03:38:48.559Z,7.70
2017-05-11T03:41:16.813Z,7.70
2017-05-11T03:43:45.123Z,7.60
2017-05-11T03:46:14.105Z,7.60
2017-05-11T03:48:42.401Z,7.60
2017-05-11T03:51:10.637Z,7.60
2017-05-11T03:53:38.881Z,7.50
2017-05-11T03:56:07.110Z,7.40
2017-05-11T03:58:36.125Z,7.50
2017-05-11T04:01:04.360Z,7.50
2017-05-11T04:03:32.665Z,7.60
2017-05-11T04:06:01.656Z,7.60
2017-05-11T04:08:29.906Z,7.80
2017-05-11T04:10:58.180Z,7.80
2017-05-11T04:13:26.493Z,7.90
2017-05-11T04:15:54.732Z,8.00
2017-05-11T04:18:23.078Z,8.00
2017-05-11T04:20:51.310Z,8.10
2017-05-11T04:23:19.582Z,8.10
2017-05-11T04:25:48.548Z,8.10
2017-05-11T04:28:16.877Z,8.10
2017-05-11T04:30:45.116Z,8.20
2017-05-11T04:33:13.363Z,8.40
2017-05-11T04:35:41.630Z,8.50
2017-05-11T04:38:09.863Z,8.50
2017-05-11T04:40:38.097Z,8.50
2017-05-11T04:43:06.340Z,8.60
2017-05-11T04:45:34.571Z,8.60
2017-05-11T04:48:02.825Z,8.80
2017-05-11T04:50:31.068Z,9.00
2017-05-11T04:52:59.312Z,9.10
2017-05-11T04:55:27.548Z,9.20
2017-05-11T04:57:55.781Z,9.20
2017-05-11T05:00:24.029Z,9.10
2017-05-11T05:02:52.284Z,9.10
2017-05-11T05:05:21.253Z,9.00
2017-05-11T05:07:49.501Z,9.10
2017-05-11T05:10:17.741Z,9.10
2017-05-11T05:12:46.746Z,9.10
2017-05-11T05:15:14.988Z,9.30
2017-05-11T05:17:43.265Z,9.30
2017-05-11T05:20:11.497Z,9.30
2017-05-11T05:22:39.743Z,9.30
2017-05-11T05:25:08.675Z,9.30
2017-05-11T05:27:37.069Z,9.40
2017-05-11T05:30:05.311Z,9.50
2017-05-11T05:32:33.555Z,9.60
2017-05-11T05:35:01.798Z,9.70
2017-05-11T05:37:30.120Z,9.70
2017-05-11T05:40:00.237Z,9.70
2017-05-11T05:42:28.473Z,9.70
2017-05-11T05:44:56.728Z,9.70
2017-05-11T05:47:24.970Z,9.80
2017-05-11T05:49:53.241Z,9.80
2017-05-11T05:52:21.512Z,9.80
2017-05-11T05:54:49.756Z,9.90
2017-05-11T05:57:18.738Z,9.80
2017-05-11T05:59:46.977Z,10.00
2017-05-11T06:02:15.286Z,10.10
2017-05-11T06:04:43.956Z,10.20
2017-05-11T06:07:15.889Z,10.20
2017-05-11T06:09:44.161Z,10.20
2017-05-11T06:12:12.402Z,10.20
2017-05-11T06:14:41.422Z,10.20
2017-05-11T06:17:40.976Z,10.30
2017-05-11T06:20:09.229Z,10.40
2017-05-11T06:22:37.466Z,10.40
2017-05-11T06:25:05.720Z,10.50
2017-05-11T06:27:33.957Z,10.50
2017-05-11T06:30:02.207Z,10.50
2017-05-11T06:32:30.469Z,10.50
2017-05-11T06:34:58.706Z,10.60
2017-05-11T06:37:27.025Z,10.70
2017-05-11T06:39:55.273Z,10.80
2017-05-11T06:42:23.515Z,10.80
2017-05-11T06:44:51.858Z,10.80
2017-05-11T06:47:20.098Z,10.80
2017-05-11T06:49:48.356Z,10.80
2017-05-11T06:52:17.357Z,10.80
2017-05-11T06:54:45.620Z,11.00
2017-05-11T06:57:14.605Z,10.90
2017-05-11T06:59:43.584Z,10.90
2017-05-11T07:02:11.864Z,11.10
2017-05-11T07:04:40.863Z,11.10
2017-05-11T07:07:09.894Z,11.10
2017-05-11T07:09:38.148Z,11.00
2017-05-11T07:12:06.389Z,11.10
2017-05-11T07:14:34.665Z,11.10
2017-05-11T07:17:02.908Z,11.20
2017-05-11T07:19:31.147Z,11.20
2017-05-11T07:21:59.410Z,11.20
2017-05-11T07:24:27.654Z,11.40
2017-05-11T07:26:55.931Z,11.40
2017-05-11T07:29:24.175Z,11.50
2017-05-11T07:31:52.438Z,11.50
2017-05-11T07:34:20.745Z,11.50
2017-05-11T07:36:48.975Z,11.50
2017-05-11T07:39:17.250Z,11.60
2017-05-11T07:41:45.501Z,11.60
2017-05-11T07:44:14.477Z,11.60
2017-05-11T07:46:42.734Z,11.70
2017-05-11T07:49:10.980Z,11.90
2017-05-11T07:51:39.240Z,11.90
2017-05-11T07:54:07.483Z,12.00
2017-05-11T07:56:35.723Z,12.10
2017-05-11T07:59:03.980Z,12.10
2017-05-11T08:01:32.234Z,12.10
2017-05-11T08:04:00.546Z,12.20
2017-05-11T08:06:28.790Z,12.20
2017-05-11T08:08:57.064Z,12.20
2017-05-11T08:11:25.315Z,12.30
2017-05-11T08:13:53.566Z,12.40
2017-05-11T08:16:21.819Z,12.40
2017-05-11T08:19:05.541Z,12.50
2017-05-11T08:21:33.809Z,12.60
2017-05-11T08:24:02.049Z,12.70
2017-05-11T08:26:30.275Z,12.70
2017-05-11T08:28:58.541Z,12.80
2017-05-11T08:31:26.769Z,12.80
2017-05-11T08:33:55.011Z,12.90
2017-05-11T08:36:23.306Z,13.00
2017-05-11T08:38:52.317Z,13.00
2017-05-11T08:41:20.595Z,13.00
2017-05-11T08:43:49.568Z,13.00
2017-05-11T08:46:17.804Z,13.00
2017-05-11T08:48:46.071Z,13.00
2017-05-11T08:51:14.317Z,13.10
2017-05-11T08:53:43.300Z,13.10
2017-05-11T08:56:12.356Z,13.00
2017-05-11T08:58:40.579Z,13.10
2017-05-11T09:01:09.569Z,13.10
2017-05-11T09:03:38.549Z,13.20
2017-05-11T09:06:07.552Z,13.30
2017-05-11T09:08:35.818Z,13.40
2017-05-11T09:11:04.801Z,13.50
2017-05-11T09:13:33.092Z,13.60
2017-05-11T09:16:02.063Z,13.60
2017-05-11T09:18:30.309Z,13.70
2017-05-11T09:20:58.533Z,13.80
2017-05-11T09:23:26.756Z,13.70
2017-05-11T09:25:55.031Z,13.70
2017-05-11T09:28:23.252Z,13.80
2017-05-11T09:30:52.276Z,13.80
2017-05-11T09:33:20.504Z,13.80
2017-05-11T09:35:48.745Z,13.80
2017-05-11T09:38:16.993Z,13.90
2017-05-11T09:40:45.243Z,13.90
2017-05-11T09:43:13.500Z,13.90
2017-05-11T09:45:41.754Z,14.00
2017-05-11T09:48:09.989Z,14.10
2017-05-11T09:50:38.230Z,13.90
2017-05-11T09:53:06.464Z,14.00
2017-05-11T09:55:34.759Z,14.00
2017-05-11T09:58:03.040Z,14.10
2017-05-11T10:00:31.415Z,14.20
2017-05-11T10:02:59.750Z,14.30
2017-05-11T10:05:28.079Z,14.40
2017-05-11T10:07:56.342Z,14.60
2017-05-11T10:10:24.612Z,14.70
2017-05-11T10:12:52.844Z,14.70
2017-05-11T10:15:21.098Z,14.70
2017-05-11T10:17:50.612Z,14.80
2017-05-11T10:20:19.625Z,14.90
2017-05-11T10:22:47.933Z,15.10
2017-05-11T10:25:16.166Z,15.20
2017-05-11T10:27:44.441Z,15.40
2017-05-11T10:30:13.427Z,15.40
2017-05-11T10:32:43.411Z,15.50
2017-05-11T10:35:11.632Z,15.50
2017-05-11T10:37:39.874Z,15.50
2017-05-11T10:40:08.140Z,15.50
2017-05-11T10:42:36.394Z,15.60
2017-05-11T10:45:04.681Z,15.70
2017-05-11T10:47:32.921Z,15.50
2017-05-11T10:50:01.161Z,15.50
2017-05-11T10:52:30.138Z,15.50
2017-05-11T10:54:58.391Z,15.70
2017-05-11T10:57:26.648Z,15.80
2017-05-11T10:59:54.883Z,15.70
2017-05-11T11:02:23.881Z,15.50
2017-05-11T11:04:52.166Z,15.60
2017-05-11T11:07:20.404Z,15.60
2017-05-11T11:09:48.671Z,15.70
2017-05-11T11:12:16.905Z,15.80
2017-05-11T11:14:45.193Z,15.70
2017-05-11T11:17:13.429Z,15.70
2017-05-11T11:19:41.660Z,15.80
2017-05-11T11:22:09.916Z,15.90
2017-05-11T11:24:38.157Z,16.10
2017-05-11T11:27:06.383Z,16.10
2017-05-11T11:29:34.632Z,16.20
2017-05-11T11:32:02.881Z,16.30
2017-05-11T11:34:31.161Z,16.30
2017-05-11T11:36:59.473Z,16.40
2017-05-11T11:39:27.708Z,16.40
2017-05-11T11:41:55.960Z,16.40
2017-05-11T11:44:24.938Z,16.40
2017-05-11T11:46:53.198Z,16.50
2017-05-11T11:49:21.781Z,16.40
2017-05-11T11:51:50.024Z,16.50
2017-05-11T11:54:18.321Z,16.40
2017-05-11T11:56:46.582Z,16.40
2017-05-11T11:59:14.838Z,16.50
2017-05-11T12:01:43.076Z,16.60
2017-05-11T12:04:11.371Z,16.70
2017-05-11T12:06:40.359Z,16.80
2017-05-11T12:09:09.330Z,16.90
2017-05-11T12:11:37.591Z,17.00
2017-05-11T12:14:05.816Z,16.90
2017-05-11T12:16:34.126Z,17.00
2017-05-11T12:19:02.367Z,17.10
2017-05-11T12:21:30.613Z,17.10
2017-05-11T12:23:58.855Z,17.20
2017-05-11T12:26:27.096Z,17.30
2017-05-11T12:28:55.339Z,17.50
2017-05-11T12:31:23.608Z,17.70
2017-05-11T12:33:51.839Z,17.80
2017-05-11T12:36:20.081Z,17.70
2017-05-11T12:38:49.068Z,17.80
2017-05-11T12:41:18.083Z,17.90
2017-05-11T12:43:46.387Z,18.00
2017-05-11T12:46:14.625Z,17.90
2017-05-11T12:48:42.884Z,17.90
2017-05-11T12:51:11.893Z,17.70
2017-05-11T12:53:40.173Z,17.70
2017-05-11T12:56:08.431Z,17.70
2017-05-11T12:58:37.440Z,17.70
2017-05-11T13:01:06.282Z,17.70
2017-05-11T13:03:34.525Z,17.60
2017-05-11T13:06:02.780Z,17.60
2017-05-11T13:08:31.015Z,17.70
2017-05-11T13:10:59.255Z,17.80
2017-05-11T13:13:27.524Z,17.90
2017-05-11T13:15:55.764Z,18.00
2017-05-11T13:18:24.752Z,18.00
2017-05-11T13:20:53.729Z,18.00
2017-05-11T13:23:22.171Z,18.20
2017-05-11T13:25:50.417Z,18.20
2017-05-11T13:28:18.656Z,18.30
2017-05-11T13:30:47.653Z,18.40
2017-05-11T13:33:16.625Z,18.50
2017-05-11T13:35:44.979Z,18.50
2017-05-11T13:38:13.211Z,18.50
2017-05-11T13:40:41.480Z,18.60
2017-05-11T13:43:10.856Z,18.80
2017-05-11T13:45:39.085Z,18.80
2017-05-11T13:48:07.382Z,18.70
2017-05-11T13:50:35.617Z,18.80
2017-05-11T13:53:03.876Z,18.80
2017-05-11T13:55:32.848Z,18.70
2017-05-11T13:58:01.212Z,18.90
2017-05-11T14:00:29.488Z,18.90
2017-05-11T14:02:57.751Z,18.80
2017-05-11T14:05:25.998Z,18.80
2017-05-11T14:07:54.255Z,18.90
2017-05-11T14:10:22.528Z,18.90
2017-05-11T14:12:51.670Z,19.00
2017-05-11T14:15:19.916Z,19.00
2017-05-11T14:17:48.196Z,19.10
2017-05-11T14:20:16.472Z,19.30
2017-05-11T14:22:44.760Z,19.40
2017-05-11T14:25:12.991Z,19.50
2017-05-11T14:27:42.142Z,19.50
2017-05-11T14:30:10.378Z,19.50
2017-05-11T14:32:38.596Z,19.40
2017-05-11T14:35:06.869Z,19.20
2017-05-11T14:37:35.112Z,19.30
2017-05-11T14:40:03.363Z,19.40
2017-05-11T14:42:32.350Z,19.30
2017-05-11T14:45:01.472Z,19.50
2017-05-11T14:47:29.726Z,19.70
2017-05-11T14:49:58.724Z,19.90
2017-05-11T14:52:27.705Z,20.20
2017-05-11T14:54:56.712Z,20.40
2017-05-11T14:57:24.973Z,20.60
2017-05-11T14:59:54.080Z,20.60
2017-05-11T15:02:22.346Z,20.80
2017-05-11T15:04:50.780Z,20.90
2017-05-11T15:07:19.048Z,20.90
2017-05-11T15:09:47.291Z,21.00
2017-05-11T15:12:15.530Z,21.30
2017-05-11T15:14:43.780Z,21.80
2017-05-11T15:17:12.041Z,22.60
2017-05-11T15:19:40.267Z,24.00
2017-05-11T15:22:09.267Z,24.40
2017-05-11T15:24:38.311Z,25.10
2017-05-11T15:27:06.534Z,25.60
2017-05-11T15:29:34.785Z,26.50
2017-05-11T15:32:03.020Z,27.40
2017-05-11T15:34:31.280Z,28.30
2017-05-11T15:36:59.586Z,28.50
2017-05-11T15:39:27.810Z,29.20
2017-05-11T15:41:56.795Z,29.90
2017-05-11T15:44:25.770Z,29.70
2017-05-11T15:46:54.029Z,30.30
2017-05-11T15:49:22.276Z,29.70
2017-05-11T15:51:50.513Z,28.90
2017-05-11T15:54:19.545Z,28.10
2017-05-11T15:56:47.782Z,28.50
2017-05-11T15:59:16.803Z,29.80
2017-05-11T16:01:45.105Z,30.50
2017-05-11T16:04:13.336Z,30.50
2017-05-11T16:06:41.621Z,30.10
2017-05-11T16:09:09.882Z,29.80
2017-05-11T16:11:38.897Z,29.30
2017-05-11T16:14:07.125Z,28.80
2017-05-11T16:16:35.414Z,29.50
2017-05-11T16:19:03.730Z,30.00
2017-05-11T16:21:32.125Z,30.10
2017-05-11T16:24:00.380Z,30.70
2017-05-11T16:26:29.757Z,31.20
2017-05-11T16:28:58.183Z,30.40
2017-05-11T16:31:26.561Z,29.70
2017-05-11T16:33:54.824Z,29.60
2017-05-11T16:36:23.079Z,29.60
2017-05-11T16:38:51.334Z,30.30
2017-05-11T16:41:20.300Z,30.40
2017-05-11T16:43:48.653Z,30.20
2017-05-11T16:46:16.900Z,30.70
2017-05-11T16:48:45.186Z,30.90
2017-05-11T16:51:13.408Z,30.90
2017-05-11T16:53:41.663Z,30.10
2017-05-11T16:56:10.013Z,29.60
2017-05-11T16:58:38.480Z,29.30
2017-05-11T17:01:06.729Z,29.00
2017-05-11T17:03:35.005Z,29.10
2017-05-11T17:06:03.261Z,28.70
2017-05-11T17:08:32.319Z,28.70
2017-05-11T17:11:00.565Z,28.00
2017-05-11T17:13:28.856Z,27.60
2017-05-11T17:15:57.113Z,27.20
2017-05-11T17:18:25.354Z,27.30
2017-05-11T17:20:54.424Z,27.10
2017-05-11T17:23:22.644Z,27.10
2017-05-11T17:25:51.779Z,26.80
2017-05-11T17:28:20.055Z,26.90
2017-05-11T17:30:48.300Z,26.60
2017-05-11T17:33:16.564Z,26.40
2017-05-11T17:35:44.800Z,26.30
2017-05-11T17:38:13.048Z,26.10
2017-05-11T17:40:41.328Z,25.60
2017-05-11T17:43:09.572Z,25.50
2017-05-11T17:45:37.818Z,25.10
2017-05-11T17:48:06.067Z,24.70
2017-05-11T17:50:34.303Z,24.40
2017-05-11T17:53:02.532Z,23.90
2017-05-11T17:55:30.796Z,23.30
2017-05-11T17:57:59.024Z,23.00
2017-05-11T18:00:27.301Z,22.90
2017-05-11T18:02:55.602Z,22.70
2017-05-11T18:05:23.878Z,22.50
2017-05-11T18:07:52.412Z,22.10
2017-05-11T18:10:20.705Z,21.80
2017-05-11T18:12:49.085Z,21.50
2017-05-11T18:15:17.340Z,21.10
2017-05-11T18:17:46.444Z,20.60
2017-05-11T18:20:14.703Z,20.30
2017-05-11T18:22:43.005Z,20.10
2017-05-11T18:25:11.363Z,20.00
2017-05-11T18:27:40.391Z,19.60
2017-05-11T18:30:08.696Z,19.40
2017-05-11T18:32:37.018Z,19.20
2017-05-11T18:35:05.847Z,18.70
2017-05-11T18:37:34.172Z,18.60
2017-05-11T18:40:02.448Z,18.40
2017-05-11T18:42:31.461Z,18.20
2017-05-11T18:44:59.695Z,18.10
2017-05-11T18:47:27.928Z,17.90
2017-05-11T18:49:56.296Z,17.80
2017-05-11T18:52:24.532Z,17.70
2017-05-11T18:54:53.520Z,17.40
2017-05-11T18:57:21.804Z,17.40
2017-05-11T18:59:50.131Z,17.30
2017-05-11T19:02:19.202Z,16.90
2017-05-11T19:04:47.468Z,16.80
2017-05-11T19:07:15.726Z,16.60
2017-05-11T19:09:44.714Z,16.40
2017-05-11T19:12:13.007Z,16.30
2017-05-11T19:14:41.403Z,16.10
2017-05-11T19:17:09.699Z,16.00
2017-05-11T19:19:37.951Z,15.80
2017-05-11T19:22:06.184Z,15.70
2017-05-11T19:24:34.437Z,15.60
2017-05-11T19:27:02.665Z,15.60
2017-05-11T19:29:30.977Z,15.60
2017-05-11T19:31:59.240Z,15.50
2017-05-11T19:34:27.524Z,15.50
2017-05-11T19:36:55.841Z,15.40
2017-05-11T19:39:24.829Z,15.20
2017-05-11T19:41:53.055Z,15.10
2017-05-11T19:44:21.310Z,15.10
2017-05-11T19:46:49.572Z,15.00
2017-05-11T19:49:17.883Z,15.00
2017-05-11T19:51:46.119Z,14.90
2017-05-11T19:54:15.109Z,14.80
2017-05-11T19:56:44.104Z,14.70
2017-05-11T19:59:13.106Z,14.60
2017-05-11T20:01:41.382Z,14.60
2017-05-11T20:04:09.646Z,14.50
2017-05-11T20:06:38.645Z,14.40
2017-05-11T20:09:07.631Z,14.50
2017-05-11T20:11:36.617Z,14.30
2017-05-11T20:14:05.612Z,14.20
2017-05-11T20:16:33.856Z,14.30
2017-05-11T20:19:02.109Z,14.20
2017-05-11T20:21:30.350Z,14.10
2017-05-11T20:23:58.617Z,14.10
2017-05-11T20:26:27.596Z,14.00
2017-05-11T20:28:56.572Z,13.90
2017-05-11T20:31:24.812Z,13.90
2017-05-11T20:33:53.105Z,13.90
2017-05-11T20:36:21.353Z,13.90
2017-05-11T20:38:49.622Z,13.90
2017-05-11T20:41:17.872Z,13.80
2017-05-11T20:43:46.914Z,13.70
2017-05-11T20:46:15.162Z,13.80
2017-05-11T20:48:43.421Z,13.90
2017-05-11T20:51:11.740Z,14.00
2017-05-11T20:53:40.014Z,14.00
2017-05-11T20:56:08.275Z,14.10
2017-05-11T20:58:36.527Z,14.00
2017-05-11T21:01:04.795Z,14.00
2017-05-11T21:03:33.081Z,14.00
2017-05-11T21:06:01.386Z,14.00
2017-05-11T21:08:29.676Z,13.90
2017-05-11T21:10:57.933Z,13.90
2017-05-11T21:13:26.259Z,13.90
2017-05-11T21:15:55.706Z,13.90
2017-05-11T21:18:25.107Z,14.00
2017-05-11T21:20:53.774Z,14.00
2017-05-11T21:23:23.138Z,13.90
2017-05-11T21:25:51.834Z,14.00
2017-05-11T21:28:21.198Z,13.90
2017-05-11T21:30:49.478Z,13.90
2017-05-11T21:33:17.726Z,13.90
2017-05-11T21:35:45.965Z,13.80
2017-05-11T21:38:14.204Z,13.80
2017-05-11T21:40:42.452Z,13.80
2017-05-11T21:43:10.737Z,13.90
2017-05-11T21:45:39.029Z,13.90
2017-05-11T21:48:07.256Z,13.90
2017-05-11T21:50:35.489Z,13.80
2017-05-11T21:53:03.851Z,13.80
2017-05-11T21:55:32.091Z,13.80
2017-05-11T21:58:00.334Z,13.80
2017-05-11T22:00:29.342Z,13.70
2017-05-11T22:02:57.589Z,13.70
2017-05-11T22:05:25.827Z,13.80
2017-05-11T22:07:54.050Z,13.70
2017-05-11T22:10:22.304Z,13.70
2017-05-11T22:12:50.574Z,13.70
2017-05-11T22:15:18.824Z,13.70
2017-05-11T22:17:47.141Z,13.70
2017-05-11T22:20:15.398Z,13.60
2017-05-11T22:22:43.652Z,13.70
2017-05-11T22:25:11.901Z,13.70
2017-05-11T22:27:40.973Z,13.80
2017-05-11T22:30:09.977Z,13.80
2017-05-11T22:32:37.468Z,13.80
2017-05-11T22:35:05.718Z,13.90
2017-05-11T22:37:33.967Z,13.90
2017-05-11T22:40:02.184Z,14.00
2017-05-11T22:42:30.429Z,14.00
2017-05-11T22:44:59.406Z,13.80
2017-05-11T22:47:27.680Z,13.80
2017-05-11T22:49:55.919Z,13.80
2017-05-11T22:52:24.138Z,13.80
2017-05-11T22:54:53.152Z,13.70
2017-05-11T22:57:21.409Z,13.80
2017-05-11T22:59:50.389Z,13.70
2017-05-11T23:02:18.628Z,13.80
2017-05-11T23:04:46.864Z,13.90
2017-05-11T23:07:15.153Z,13.90
2017-05-11T23:09:43.412Z,14.00
2017-05-11T23:12:11.659Z,14.00
2017-05-11T23:14:39.897Z,14.00
2017-05-11T23:17:08.147Z,14.10
2017-05-11T23:19:36.408Z,14.20
2017-05-11T23:22:04.726Z,14.20
2017-05-11T23:24:33.037Z,14.20
2017-05-11T23:27:01.288Z,14.20
2017-05-11T23:29:29.554Z,14.20
2017-05-11T23:31:57.815Z,14.20
2017-05-11T23:34:26.040Z,14.30
2017-05-11T23:36:54.268Z,14.30
2017-05-11T23:39:22.687Z,14.30
2017-05-11T23:41:50.931Z,14.30
2017-05-11T23:44:19.261Z,14.30
2017-05-11T23:46:48.232Z,14.30
2017-05-11T23:49:16.472Z,14.40
2017-05-11T23:51:44.704Z,14.30
2017-05-11T23:54:13.689Z,14.30
2017-05-11T23:56:41.969Z,14.30
2017-05-11T23:59:10.964Z,14.20
